createdAt,value
2019-02-06T00:00:54.826Z,74.36
2019-02-06T00:03:23.566Z,74.29
2019-02-06T00:05:52.146Z,74.05
2019-02-06T00:08:20.922Z,74.35
2019-02-06T00:10:49.617Z,73.61
2019-02-06T00:13:18.195Z,73.48
2019-02-06T00:15:46.934Z,73.33
2019-02-06T00:18:15.573Z,73.61
2019-02-06T00:20:44.199Z,73.93
2019-02-06T00:23:12.820Z,73.91
2019-02-06T00:25:41.464Z,72.87
2019-02-06T00:28:10.056Z,71.38
2019-02-06T00:30:38.709Z,72.33
2019-02-06T00:33:07.782Z,73.00
2019-02-06T00:35:36.375Z,71.98
2019-02-06T00:38:05.645Z,72.66
2019-02-06T00:40:34.291Z,72.87
2019-02-06T00:43:02.871Z,72.46
2019-02-06T00:45:31.389Z,72.50
2019-02-06T00:48:00.365Z,72.29
2019-02-06T00:50:29.205Z,71.69
2019-02-06T00:52:57.781Z,72.67
2019-02-06T00:55:26.296Z,72.47
2019-02-06T00:57:54.688Z,73.97
2019-02-06T01:00:23.843Z,72.60
2019-02-06T01:02:53.127Z,71.10
2019-02-06T01:05:22.349Z,71.39
2019-02-06T01:07:51.391Z,71.45
2019-02-06T01:10:21.693Z,71.71
2019-02-06T01:12:50.377Z,71.99
2019-02-06T01:15:19.205Z,72.35
2019-02-06T01:17:47.863Z,71.78
2019-02-06T01:20:18.158Z,71.14
2019-02-06T01:22:46.765Z,72.06
2019-02-06T01:25:17.422Z,71.98
2019-02-06T01:27:46.227Z,72.36
2019-02-06T01:30:21.521Z,72.42
2019-02-06T01:32:50.112Z,74.49
2019-02-06T01:35:18.999Z,72.76
2019-02-06T01:37:47.616Z,70.98
2019-02-06T01:40:19.630Z,71.51
2019-02-06T01:42:48.363Z,71.76
2019-02-06T01:45:19.375Z,71.88
2019-02-06T01:47:48.046Z,71.54
2019-02-06T01:50:18.578Z,71.72
2019-02-06T01:52:47.188Z,71.77
2019-02-06T01:55:16.205Z,71.69
2019-02-06T01:57:44.790Z,71.43
2019-02-06T02:00:15.960Z,71.82
2019-02-06T02:02:45.238Z,71.27
2019-02-06T02:05:17.100Z,71.82
2019-02-06T02:07:46.306Z,71.67
2019-02-06T02:10:15.167Z,71.75
2019-02-06T02:12:43.822Z,70.52
2019-02-06T02:15:15.251Z,69.99
2019-02-06T02:17:43.813Z,70.17
2019-02-06T02:20:15.016Z,70.98
2019-02-06T02:22:43.696Z,71.07
2019-02-06T02:25:12.506Z,71.31
2019-02-06T02:27:41.143Z,71.44
2019-02-06T02:30:15.522Z,71.48
2019-02-06T02:32:44.258Z,71.01
2019-02-06T02:35:12.834Z,70.68
2019-02-06T02:37:41.431Z,70.25
2019-02-06T02:40:11.572Z,70.46
2019-02-06T02:42:40.236Z,70.15
2019-02-06T02:45:12.230Z,73.37
2019-02-06T02:47:40.882Z,71.13
2019-02-06T02:50:11.012Z,69.90
2019-02-06T02:52:39.597Z,70.46
2019-02-06T02:55:10.516Z,70.13
2019-02-06T02:57:39.036Z,70.53
2019-02-06T03:00:19.783Z,71.45
2019-02-06T03:02:52.965Z,70.06
2019-02-06T03:05:23.046Z,70.53
2019-02-06T03:07:51.658Z,70.73
2019-02-06T03:10:20.293Z,70.40
2019-02-06T03:12:48.921Z,69.36
2019-02-06T03:15:17.597Z,69.35
2019-02-06T03:17:46.192Z,69.34
2019-02-06T03:20:15.207Z,71.05
2019-02-06T03:22:43.857Z,69.15
2019-02-06T03:25:14.344Z,68.71
2019-02-06T03:27:42.972Z,68.56
2019-02-06T03:30:18.749Z,69.06
2019-02-06T03:32:47.329Z,68.70
2019-02-06T03:35:16.136Z,69.41
2019-02-06T03:37:44.666Z,69.43
2019-02-06T03:40:16.175Z,69.80
2019-02-06T03:42:45.034Z,69.20
2019-02-06T03:45:14.312Z,69.21
2019-02-06T03:47:42.776Z,68.71
2019-02-06T03:50:14.229Z,68.96
2019-02-06T03:52:42.849Z,68.77
2019-02-06T03:55:12.429Z,69.87
2019-02-06T03:57:40.995Z,68.97
2019-02-06T04:00:15.803Z,68.18
2019-02-06T04:02:44.593Z,68.29
2019-02-06T04:05:13.774Z,68.70
2019-02-06T04:07:42.394Z,68.07
2019-02-06T04:10:16.307Z,68.37
2019-02-06T04:12:44.923Z,69.03
2019-02-06T04:15:14.237Z,68.44
2019-02-06T04:17:42.809Z,68.44
2019-02-06T04:20:16.191Z,67.91
2019-02-06T04:22:44.812Z,67.72
2019-02-06T04:25:15.014Z,67.68
2019-02-06T04:27:43.645Z,67.40
2019-02-06T04:30:17.052Z,69.40
2019-02-06T04:32:45.750Z,68.44
2019-02-06T04:35:15.253Z,67.90
2019-02-06T04:37:43.850Z,66.62
2019-02-06T04:40:15.209Z,67.33
2019-02-06T04:42:43.795Z,67.66
2019-02-06T04:45:15.001Z,66.91
2019-02-06T04:47:43.690Z,67.27
2019-02-06T04:50:14.199Z,67.35
2019-02-06T04:52:42.787Z,68.11
2019-02-06T04:55:18.505Z,67.96
2019-02-06T04:57:47.282Z,67.23
2019-02-06T05:00:21.162Z,67.35
2019-02-06T05:02:49.751Z,67.26
2019-02-06T05:05:18.365Z,68.64
2019-02-06T05:07:46.980Z,68.15
2019-02-06T05:10:15.928Z,66.79
2019-02-06T05:12:44.943Z,66.52
2019-02-06T05:15:15.874Z,66.03
2019-02-06T05:17:44.667Z,66.74
2019-02-06T05:20:34.074Z,66.66
2019-02-06T05:23:02.765Z,66.60
2019-02-06T05:25:31.391Z,66.56
2019-02-06T05:27:59.991Z,66.90
2019-02-06T05:30:28.635Z,66.74
2019-02-06T05:32:57.172Z,65.98
2019-02-06T05:35:25.801Z,65.89
2019-02-06T05:37:54.499Z,65.93
2019-02-06T05:40:23.418Z,67.83
2019-02-06T05:42:52.790Z,67.53
2019-02-06T05:45:21.502Z,66.21
2019-02-06T05:47:50.226Z,65.16
2019-02-06T05:50:19.809Z,64.83
2019-02-06T05:52:48.502Z,65.05
2019-02-06T05:55:18.025Z,65.40
2019-02-06T05:57:47.358Z,65.28
2019-02-06T06:00:23.130Z,64.95
2019-02-06T06:02:51.983Z,65.76
2019-02-06T06:05:20.856Z,65.78
2019-02-06T06:07:49.460Z,64.99
2019-02-06T06:10:19.173Z,65.53
2019-02-06T06:12:48.059Z,64.72
2019-02-06T06:15:18.512Z,64.84
2019-02-06T06:17:47.023Z,65.61
2019-02-06T06:20:18.030Z,64.45
2019-02-06T06:22:46.836Z,64.25
2019-02-06T06:25:17.366Z,64.86
2019-02-06T06:27:46.366Z,64.86
2019-02-06T06:30:19.859Z,64.14
2019-02-06T06:32:48.485Z,64.46
2019-02-06T06:35:17.057Z,64.81
2019-02-06T06:37:57.664Z,64.12
2019-02-06T06:40:23.255Z,64.18
2019-02-06T06:42:51.868Z,64.63
2019-02-06T06:45:24.941Z,64.03
2019-02-06T06:47:53.565Z,64.30
2019-02-06T06:50:26.309Z,65.07
2019-02-06T06:52:54.894Z,65.77
2019-02-06T06:55:23.857Z,63.70
2019-02-06T06:57:52.467Z,63.54
2019-02-06T07:00:26.024Z,64.05
2019-02-06T07:02:54.587Z,63.78
2019-02-06T07:05:23.172Z,64.25
2019-02-06T07:07:52.872Z,64.10
2019-02-06T07:10:21.865Z,63.38
2019-02-06T07:12:50.560Z,63.31
2019-02-06T07:15:27.021Z,63.98
2019-02-06T07:17:55.628Z,64.02
2019-02-06T07:20:24.204Z,63.36
2019-02-06T07:22:52.666Z,63.99
2019-02-06T07:25:21.642Z,63.64
2019-02-06T07:27:50.227Z,64.87
2019-02-06T07:30:33.325Z,63.47
2019-02-06T07:33:02.008Z,63.26
2019-02-06T07:35:30.865Z,62.59
2019-02-06T07:38:00.747Z,62.73
2019-02-06T07:40:29.386Z,62.75
2019-02-06T07:42:58.093Z,62.59
2019-02-06T07:45:26.767Z,63.26
2019-02-06T07:47:55.378Z,63.30
2019-02-06T07:50:29.399Z,62.80
2019-02-06T07:52:58.376Z,62.52
2019-02-06T07:55:26.963Z,62.33
2019-02-06T07:57:55.567Z,62.78
2019-02-06T08:00:24.407Z,62.90
2019-02-06T08:02:54.451Z,64.59
2019-02-06T08:05:25.043Z,61.80
2019-02-06T08:07:53.956Z,61.41
2019-02-06T08:10:30.666Z,61.21
2019-02-06T08:12:59.289Z,61.29
2019-02-06T08:15:28.004Z,61.65
2019-02-06T08:17:56.600Z,62.02
2019-02-06T08:20:25.514Z,61.25
2019-02-06T08:22:54.606Z,61.33
2019-02-06T08:25:24.291Z,61.80
2019-02-06T08:27:52.922Z,62.36
2019-02-06T08:30:24.217Z,61.59
2019-02-06T08:32:52.988Z,61.86
2019-02-06T08:35:21.706Z,61.21
2019-02-06T08:37:50.755Z,61.20
2019-02-06T08:40:22.265Z,59.92
2019-02-06T08:42:50.838Z,60.05
2019-02-06T08:45:19.770Z,59.67
2019-02-06T08:47:48.429Z,60.34
2019-02-06T08:50:19.410Z,58.60
2019-02-06T08:52:48.473Z,59.55
2019-02-06T08:55:22.628Z,58.89
2019-02-06T08:57:51.411Z,59.00
2019-02-06T09:00:23.125Z,59.47
2019-02-06T09:02:51.695Z,59.47
2019-02-06T09:05:20.310Z,59.18
2019-02-06T09:07:49.137Z,59.13
2019-02-06T09:10:20.485Z,59.47
2019-02-06T09:12:49.087Z,59.92
2019-02-06T09:15:17.814Z,58.81
2019-02-06T09:17:46.421Z,57.51
2019-02-06T09:20:17.510Z,57.95
2019-02-06T09:22:46.409Z,56.69
2019-02-06T09:25:20.190Z,57.66
2019-02-06T09:27:48.811Z,56.85
2019-02-06T09:30:23.018Z,57.25
2019-02-06T09:32:51.699Z,56.99
2019-02-06T09:35:20.898Z,56.53
2019-02-06T09:37:49.493Z,56.90
2019-02-06T09:40:20.861Z,56.66
2019-02-06T09:42:49.382Z,54.95
2019-02-06T09:45:18.091Z,56.12
2019-02-06T09:47:46.605Z,56.59
2019-02-06T09:50:24.436Z,53.98
2019-02-06T09:52:53.049Z,54.51
2019-02-06T09:55:21.935Z,54.56
2019-02-06T09:57:50.586Z,54.78
2019-02-06T10:00:22.309Z,54.45
2019-02-06T10:02:51.052Z,54.76
2019-02-06T10:05:20.085Z,54.63
2019-02-06T10:07:49.551Z,54.04
2019-02-06T10:10:26.363Z,54.57
2019-02-06T10:12:54.975Z,53.88
2019-02-06T10:15:37.815Z,54.42
2019-02-06T10:18:06.723Z,54.75
2019-02-06T10:20:40.802Z,55.51
2019-02-06T10:23:09.609Z,54.17
2019-02-06T10:25:38.811Z,54.10
2019-02-06T10:28:07.410Z,53.23
2019-02-06T10:30:38.403Z,53.08
2019-02-06T10:33:07.043Z,53.53
2019-02-06T10:35:35.968Z,52.75
2019-02-06T10:38:04.704Z,52.08
2019-02-06T10:40:33.300Z,52.64
2019-02-06T10:43:01.950Z,53.21
2019-02-06T10:45:30.597Z,52.94
2019-02-06T10:47:59.405Z,52.39
2019-02-06T10:50:36.603Z,52.00
2019-02-06T10:53:05.555Z,53.87
2019-02-06T10:55:34.736Z,55.50
2019-02-06T10:58:03.338Z,54.70
2019-02-06T11:00:38.269Z,52.43
2019-02-06T11:03:07.205Z,52.84
2019-02-06T11:05:35.780Z,53.22
2019-02-06T11:08:05.171Z,52.62
2019-02-06T11:10:33.884Z,52.72
2019-02-06T11:13:02.742Z,53.89
2019-02-06T11:15:31.738Z,53.22
2019-02-06T11:18:00.430Z,53.09
2019-02-06T11:20:31.290Z,53.12
2019-02-06T11:22:59.871Z,52.72
2019-02-06T11:25:28.535Z,53.01
2019-02-06T11:27:57.248Z,53.09
2019-02-06T11:30:31.558Z,55.12
2019-02-06T11:33:00.244Z,52.85
2019-02-06T11:35:28.829Z,51.83
2019-02-06T11:37:57.918Z,51.31
2019-02-06T11:40:26.627Z,51.20
2019-02-06T11:42:55.206Z,51.79
2019-02-06T11:45:26.736Z,51.33
2019-02-06T11:47:55.325Z,51.51
2019-02-06T11:50:25.795Z,52.36
2019-02-06T11:52:54.463Z,52.31
2019-02-06T11:55:28.725Z,52.75
2019-02-06T11:57:57.344Z,51.59
2019-02-06T12:00:31.044Z,51.59
2019-02-06T12:02:59.630Z,52.25
2019-02-06T12:05:28.247Z,53.00
2019-02-06T12:07:57.079Z,52.74
2019-02-06T12:10:25.693Z,51.83
2019-02-06T12:12:54.325Z,51.98
2019-02-06T12:15:23.343Z,51.65
2019-02-06T12:17:51.976Z,52.11
2019-02-06T12:20:25.526Z,52.27
2019-02-06T12:22:54.309Z,51.92
2019-02-06T12:25:23.033Z,52.33
2019-02-06T12:27:54.271Z,52.33
2019-02-06T12:30:26.122Z,53.00
2019-02-06T12:32:54.818Z,51.87
2019-02-06T12:35:23.534Z,52.06
2019-02-06T12:37:52.133Z,51.95
2019-02-06T12:40:22.014Z,52.05
2019-02-06T12:42:50.919Z,51.46
2019-02-06T12:45:21.817Z,52.42
2019-02-06T12:47:51.069Z,51.51
2019-02-06T12:50:24.440Z,50.40
2019-02-06T12:52:53.130Z,51.27
2019-02-06T12:55:30.536Z,51.20
2019-02-06T12:57:59.155Z,49.52
2019-02-06T13:00:30.449Z,50.16
2019-02-06T13:03:00.162Z,49.78
2019-02-06T13:05:29.507Z,50.26
2019-02-06T13:07:58.125Z,50.33
2019-02-06T13:10:34.167Z,50.43
2019-02-06T13:12:56.983Z,50.11
2019-02-06T13:15:25.473Z,49.12
2019-02-06T13:17:54.473Z,48.75
2019-02-06T13:20:31.538Z,49.81
2019-02-06T13:23:00.148Z,49.61
2019-02-06T13:25:28.725Z,49.66
2019-02-06T13:27:57.453Z,49.35
2019-02-06T13:30:34.489Z,49.18
2019-02-06T13:33:03.154Z,49.47
2019-02-06T13:35:31.759Z,48.68
2019-02-06T13:38:00.378Z,48.56
2019-02-06T13:40:29.495Z,48.33
2019-02-06T13:42:58.900Z,50.11
2019-02-06T13:45:30.628Z,50.11
2019-02-06T13:47:59.244Z,49.69
2019-02-06T13:50:28.186Z,49.98
2019-02-06T13:52:56.805Z,49.33
2019-02-06T13:55:26.072Z,49.46
2019-02-06T13:57:54.783Z,50.02
2019-02-06T14:00:26.189Z,48.97
2019-02-06T14:02:54.918Z,48.44
2019-02-06T14:05:28.235Z,49.08
2019-02-06T14:07:59.384Z,49.07
2019-02-06T14:10:29.908Z,48.30
2019-02-06T14:12:59.166Z,49.03
2019-02-06T14:15:36.383Z,50.27
2019-02-06T14:18:05.238Z,48.94
2019-02-06T14:20:33.857Z,49.33
2019-02-06T14:23:26.300Z,49.84
2019-02-06T14:26:06.944Z,49.62
2019-02-06T14:28:45.161Z,49.99
2019-02-06T14:31:41.145Z,48.55
2019-02-06T14:34:35.103Z,49.49
2019-02-06T14:37:35.388Z,49.38
2019-02-06T14:40:15.989Z,48.55
2019-02-06T14:43:08.554Z,49.70
2019-02-06T14:45:55.248Z,48.27
2019-02-06T14:48:32.619Z,49.22
2019-02-06T14:51:23.965Z,48.65
2019-02-06T14:54:01.864Z,49.62
2019-02-06T14:56:44.978Z,49.37
2019-02-06T14:59:25.285Z,48.79
2019-02-06T15:02:13.108Z,49.49
2019-02-06T15:04:47.560Z,48.83
2019-02-06T15:07:24.972Z,48.28
2019-02-06T15:10:11.532Z,48.71
2019-02-06T15:12:55.227Z,49.32
2019-02-06T15:15:36.080Z,48.56
2019-02-06T15:18:19.918Z,48.75
2019-02-06T15:20:57.286Z,48.31
2019-02-06T15:23:49.834Z,49.69
2019-02-06T15:26:51.763Z,49.50
2019-02-06T15:29:32.194Z,48.37
2019-02-06T15:32:29.448Z,47.49
2019-02-06T15:35:18.999Z,48.56
2019-02-06T15:37:50.528Z,48.53
2019-02-06T15:40:28.079Z,48.27
2019-02-06T15:43:11.554Z,48.28
2019-02-06T15:45:58.243Z,48.71
2019-02-06T15:48:42.039Z,49.26
2019-02-06T15:51:31.460Z,49.37
2019-02-06T15:54:08.875Z,50.77
2019-02-06T15:57:01.574Z,49.26
2019-02-06T15:59:48.190Z,48.63
2019-02-06T16:02:25.860Z,49.39
2019-02-06T16:05:22.738Z,49.81
2019-02-06T16:08:06.276Z,49.15
2019-02-06T16:10:49.807Z,49.04
2019-02-06T16:13:36.173Z,49.06
2019-02-06T16:16:15.693Z,48.46
2019-02-06T16:18:53.403Z,48.73
2019-02-06T16:21:27.312Z,48.71
2019-02-06T16:23:59.032Z,48.86
2019-02-06T16:26:42.205Z,48.68
2019-02-06T16:29:28.671Z,49.80
2019-02-06T16:32:03.036Z,48.87
2019-02-06T16:34:53.408Z,49.21
2019-02-06T16:37:27.784Z,48.92
2019-02-06T16:40:15.769Z,48.49
2019-02-06T16:42:52.812Z,48.27
2019-02-06T16:45:39.523Z,48.58
2019-02-06T16:48:25.695Z,49.13
2019-02-06T16:50:59.744Z,47.78
2019-02-06T16:53:34.419Z,48.58
2019-02-06T16:56:11.537Z,48.42
2019-02-06T16:59:02.289Z,48.19
2019-02-06T17:01:57.840Z,49.11
2019-02-06T17:04:40.888Z,48.57
2019-02-06T17:07:16.035Z,48.29
2019-02-06T17:10:07.245Z,49.14
2019-02-06T17:12:41.641Z,48.32
2019-02-06T17:15:15.896Z,48.31
2019-02-06T17:17:50.181Z,49.08
2019-02-06T17:20:30.318Z,49.25
2019-02-06T17:23:13.585Z,48.10
2019-02-06T17:26:08.967Z,49.00
2019-02-06T17:28:43.357Z,49.59
2019-02-06T17:31:32.482Z,50.47
2019-02-06T17:34:15.674Z,49.96
2019-02-06T17:37:09.449Z,50.93
2019-02-06T17:39:57.284Z,51.22
2019-02-06T17:42:31.764Z,51.01
2019-02-06T17:45:19.552Z,51.46
2019-02-06T17:47:53.753Z,51.55
2019-02-06T17:50:31.355Z,52.00
2019-02-06T17:53:26.275Z,52.33
2019-02-06T17:55:54.862Z,52.22
2019-02-06T17:58:23.498Z,52.56
2019-02-06T18:00:59.195Z,52.92
2019-02-06T18:03:30.020Z,53.43
2019-02-06T18:05:58.758Z,53.74
2019-02-06T18:08:27.369Z,53.65
2019-02-06T18:10:58.572Z,54.03
2019-02-06T18:13:26.308Z,54.61
2019-02-06T18:15:54.950Z,54.72
2019-02-06T18:18:23.827Z,54.52
2019-02-06T18:20:52.489Z,54.70
2019-02-06T18:23:21.122Z,58.63
2019-02-06T18:25:49.817Z,55.96
2019-02-06T18:28:18.379Z,55.41
2019-02-06T18:30:47.392Z,55.98
2019-02-06T18:33:18.787Z,56.40
2019-02-06T18:35:47.743Z,57.20
2019-02-06T18:38:16.430Z,57.97
2019-02-06T18:40:45.379Z,58.37
2019-02-06T18:43:14.149Z,59.14
2019-02-06T18:45:42.822Z,59.67
2019-02-06T18:48:11.750Z,59.10
2019-02-06T18:50:41.044Z,59.45
2019-02-06T18:53:09.961Z,59.91
2019-02-06T18:55:38.722Z,59.96
2019-02-06T18:58:28.037Z,60.06
2019-02-06T19:00:56.698Z,59.07
2019-02-06T19:03:28.327Z,59.39
2019-02-06T19:05:57.033Z,59.07
2019-02-06T19:08:25.891Z,59.54
2019-02-06T19:10:54.549Z,58.40
2019-02-06T19:13:23.255Z,58.69
2019-02-06T19:15:56.561Z,58.62
2019-02-06T19:18:23.234Z,58.85
2019-02-06T19:20:51.828Z,59.32
2019-02-06T19:23:20.456Z,59.04
2019-02-06T19:25:49.102Z,58.62
2019-02-06T19:28:18.139Z,58.64
2019-02-06T19:30:47.119Z,58.49
2019-02-06T19:33:17.247Z,58.49
2019-02-06T19:35:46.938Z,58.77
2019-02-06T19:38:15.565Z,58.73
2019-02-06T19:40:44.158Z,58.48
2019-02-06T19:43:12.829Z,58.47
2019-02-06T19:45:42.752Z,58.88
2019-02-06T19:48:21.668Z,59.09
2019-02-06T19:50:46.427Z,58.95
2019-02-06T19:53:15.039Z,58.91
2019-02-06T19:55:43.682Z,59.07
2019-02-06T19:58:12.476Z,59.33
2019-02-06T20:00:41.165Z,59.46
2019-02-06T20:03:09.785Z,59.10
2019-02-06T20:05:38.374Z,59.10
2019-02-06T20:08:07.697Z,59.80
2019-02-06T20:10:45.079Z,59.35
2019-02-06T20:13:14.639Z,60.18
2019-02-06T20:15:43.362Z,60.57
2019-02-06T20:18:12.278Z,60.48
2019-02-06T20:20:40.873Z,60.11
2019-02-06T20:23:09.481Z,60.58
2019-02-06T20:25:38.143Z,60.52
2019-02-06T20:28:06.781Z,60.28
2019-02-06T20:30:35.485Z,61.40
2019-02-06T20:33:04.398Z,61.46
2019-02-06T20:35:33.339Z,60.99
2019-02-06T20:38:01.937Z,60.76
2019-02-06T20:40:35.992Z,61.25
2019-02-06T20:43:04.904Z,61.40
2019-02-06T20:45:33.552Z,61.44
2019-02-06T20:48:02.144Z,61.47
2019-02-06T20:50:35.706Z,61.57
2019-02-06T20:53:04.911Z,62.13
2019-02-06T20:55:33.582Z,62.36
2019-02-06T20:58:02.202Z,62.92
2019-02-06T21:00:36.665Z,63.71
2019-02-06T21:03:05.963Z,63.46
2019-02-06T21:05:34.623Z,64.26
2019-02-06T21:08:03.560Z,64.69
2019-02-06T21:10:33.410Z,64.42
2019-02-06T21:13:02.023Z,65.25
2019-02-06T21:15:32.833Z,65.24
2019-02-06T21:18:01.115Z,65.73
2019-02-06T21:20:29.724Z,66.22
2019-02-06T21:22:58.584Z,66.66
2019-02-06T21:25:27.746Z,66.47
2019-02-06T21:27:56.329Z,66.73
2019-02-06T21:30:33.371Z,66.12
2019-02-06T21:33:01.972Z,66.43
2019-02-06T21:35:30.597Z,66.63
2019-02-06T21:37:59.633Z,66.56
2019-02-06T21:40:30.503Z,67.00
2019-02-06T21:42:59.107Z,66.92
2019-02-06T21:45:27.772Z,67.25
2019-02-06T21:47:56.400Z,67.23
2019-02-06T21:50:25.524Z,67.66
2019-02-06T21:52:54.568Z,67.21
2019-02-06T21:55:24.490Z,67.60
2019-02-06T21:57:53.106Z,67.85
2019-02-06T22:00:24.647Z,67.72
2019-02-06T22:02:53.245Z,67.24
2019-02-06T22:05:21.897Z,67.00
2019-02-06T22:07:50.890Z,67.00
2019-02-06T22:10:21.905Z,67.14
2019-02-06T22:12:50.684Z,66.82
2019-02-06T22:15:21.881Z,66.79
2019-02-06T22:17:50.947Z,67.16
2019-02-06T22:20:20.103Z,66.76
2019-02-06T22:22:48.974Z,67.28
2019-02-06T22:25:17.967Z,66.97
2019-02-06T22:27:46.666Z,66.91
2019-02-06T22:30:27.007Z,66.43
2019-02-06T22:32:55.672Z,67.15
2019-02-06T22:35:24.639Z,67.72
2019-02-06T22:37:53.311Z,67.52
2019-02-06T22:40:25.837Z,67.72
2019-02-06T22:42:54.539Z,67.69
2019-02-06T22:45:30.595Z,67.96
2019-02-06T22:47:59.604Z,68.52
2019-02-06T22:50:29.586Z,68.58
2019-02-06T22:52:58.205Z,68.88
2019-02-06T22:55:26.997Z,68.39
2019-02-06T22:57:55.703Z,68.66
2019-02-06T23:00:46.796Z,68.78
2019-02-06T23:03:20.160Z,69.54
2019-02-06T23:05:48.842Z,69.40
2019-02-06T23:08:17.424Z,69.66
2019-02-06T23:10:46.247Z,70.22
2019-02-06T23:13:15.207Z,70.07
2019-02-06T23:15:43.816Z,70.42
2019-02-06T23:18:12.432Z,70.12
2019-02-06T23:20:41.051Z,70.30
2019-02-06T23:23:09.607Z,70.26
2019-02-06T23:25:38.264Z,70.77
2019-02-06T23:28:06.894Z,70.77
2019-02-06T23:30:35.598Z,70.68
2019-02-06T23:33:04.392Z,71.33
2019-02-06T23:35:33.009Z,71.02
2019-02-06T23:38:01.589Z,70.52
2019-02-06T23:40:30.206Z,70.30
2019-02-06T23:42:58.810Z,70.66
2019-02-06T23:45:27.446Z,70.59
2019-02-06T23:47:56.073Z,71.00
2019-02-06T23:50:24.680Z,71.42
2019-02-06T23:52:53.321Z,71.47
2019-02-06T23:55:21.898Z,70.93
2019-02-06T23:57:50.519Z,71.32
